Bay Bridge — 3FCS5 — position and weather

sailwx.info

Track history (hours):
 
Tides and Currents Weather Stations Pressure Air Temp Water Temp Dewpoint Dewpoint Depression Visibility Wind Speed Wind Dir Waves Ship Positions

Bay Bridge

Last reported at 2017-Mar-22 14:19 UTC. Time now 2017-Mar-25 02:00 UTC.
Position N 31°06' E 122°19'.

Length 267 m; draft 10.9 m.

Type: Ship (hazmat cat A). MMSI: 354120000.

Date/timePositionNaut miles runAvg speedWind from/ knotsBaromVisibWave heightAir tempDewpointWater temp
2017-Mar-22 14:19N 31°06' E 122°19'1013.2
2017-Mar-22 13:33N 31°12' E 122°09'1312.6
2017-Mar-22 12:34N 31°16' E 121°55'1212.0
2017-Mar-22 11:33N 31°20' E 121°42'2 2.3
2017-Mar-22 10:33N 31°20' E 121°39'0 0.0
2017-Mar-22 09:27N 31°20' E 121°39'0 0.0
2017-Mar-22 08:33N 31°20' E 121°39'0 0.0
2017-Mar-22 07:33N 31°20' E 121°39'0 0.0
2017-Mar-22 06:33N 31°20' E 121°39'0 0.0
2017-Mar-22 05:30N 31°20' E 121°39'0 0.1
2017-Mar-22 04:33N 31°20' E 121°39'0 0.0
2017-Mar-22 03:33N 31°20' E 121°39'0 0.1
2017-Mar-22 02:33N 31°20' E 121°39'0 0.0
2017-Mar-22 01:30N 31°20' E 121°39'0 0.0
2017-Mar-22 00:30N 31°20' E 121°39'0 0.0
2017-Mar-21 23:33N 31°20' E 121°39'0 0.0
2017-Mar-21 22:33N 31°20' E 121°39'0 0.0
2017-Mar-21 21:33N 31°20' E 121°39'0 0.1
2017-Mar-21 20:33N 31°20' E 121°39'0 0.1
2017-Mar-21 19:33N 31°20' E 121°39'0 0.0
2017-Mar-21 18:33N 31°20' E 121°39'0 0.0
2017-Mar-21 17:33N 31°20' E 121°39'0 0.0
2017-Mar-21 16:33N 31°20' E 121°39'0 0.0
2017-Mar-21 15:33N 31°20' E 121°39'0 0.0
2017-Mar-21 14:33N 31°20' E 121°39'0 0.0
2017-Mar-21 13:33N 31°20' E 121°39'0 0.0
2017-Mar-21 12:33N 31°20' E 121°39'0 0.0
2017-Mar-21 11:25N 31°20' E 121°39'4 4.7
2017-Mar-21 10:33N 31°19' E 121°44'9 9.4
2017-Mar-21 09:33N 31°16' E 121°54'1010.0
2017-Mar-21 08:33N 31°14' E 122°06'8 8.4
2017-Mar-21 07:33N 31°09' E 122°14'8 8.2
2017-Mar-21 06:33N 31°06' E 122°23'9 7.7
2017-Mar-21 05:22N 31°07' E 122°33'  
2017-Mar-14 11:33N 35°02' E 139°35'1616.0
2017-Mar-14 10:33N 35°15' E 139°46'1312.6
2017-Mar-14 09:33N 35°27' E 139°43'1 1.0
2017-Mar-14 08:33N 35°28' E 139°42'0 0.0
2017-Mar-14 07:33N 35°28' E 139°42'0 0.0
2017-Mar-14 06:33N 35°28' E 139°42'0 0.0
2017-Mar-14 05:33N 35°28' E 139°42'0 0.0
2017-Mar-14 04:33N 35°28' E 139°42'0 0.0
2017-Mar-14 03:33N 35°28' E 139°42'0 0.0
2017-Mar-14 02:33N 35°28' E 139°42'0 0.0
2017-Mar-14 01:33N 35°28' E 139°42'0 0.0
2017-Mar-14 00:33N 35°28' E 139°42'0 0.0
2017-Mar-13 23:33N 35°28' E 139°42'0 0.2
2017-Mar-13 22:33N 35°28' E 139°42'5 4.7
2017-Mar-13 21:33N 35°27' E 139°48'9 9.0
2017-Mar-13 20:33N 35°36' E 139°46'0 0.4
2017-Mar-13 19:31N 35°37' E 139°46'0 0.0
2017-Mar-13 18:31N 35°37' E 139°46'0 0.0
2017-Mar-13 17:28N 35°37' E 139°46'0 0.0
2017-Mar-13 16:31N 35°37' E 139°46'0 0.0
2017-Mar-13 15:31N 35°37' E 139°46'0 0.0
2017-Mar-13 14:31N 35°37' E 139°46'0 0.0
2017-Mar-13 13:31N 35°37' E 139°46'0 0.0
2017-Mar-13 12:28N 35°37' E 139°46'0 0.0
2017-Mar-13 11:31N 35°37' E 139°46'0 0.0
2017-Mar-13 10:31N 35°37' E 139°46'0 0.0
2017-Mar-13 09:28N 35°37' E 139°46'0 0.0
2017-Mar-13 08:31N 35°37' E 139°46'0 0.0
2017-Mar-13 07:31N 35°37' E 139°46'0 0.0
2017-Mar-13 06:31N 35°37' E 139°46'0 0.0
2017-Mar-13 05:31N 35°37' E 139°46'0 0.0
2017-Mar-13 04:31N 35°37' E 139°46'0 0.0
2017-Mar-13 03:31N 35°37' E 139°46'0 0.0
2017-Mar-13 02:28N 35°37' E 139°46'7 7.8
2017-Mar-13 01:34N 35°31' E 139°52'1313.0
2017-Mar-13 00:33N 35°20' E 139°44'1110.9
2017-Mar-12 23:33N 35°09' E 139°47'8 7.6
2017-Mar-12 22:33N 35°02' E 139°44'7 7.3
2017-Mar-12 21:33N 34°55' E 139°43'8 7.8
2017-Mar-12 20:33N 34°48' E 139°47'11 8.2
2017-Mar-12 19:13N 34°48' E 140°00'  
Track history (hours):
 
Tides and Currents Weather Stations Pressure Air Temp Water Temp Dewpoint Dewpoint Depression Visibility Wind Speed Wind Dir Waves Ship Positions

Bay Bridge

Last reported at 2017-Mar-22 14:19 UTC. Time now 2017-Mar-25 02:00 UTC.
Position N 31°06' E 122°19'.

Length 267 m; draft 10.9 m.

Type: Ship (hazmat cat A). MMSI: 354120000.

Date/timePositionNaut miles runAvg speedWind from/ knotsBaromVisibWave heightAir tempDewpointWater temp
2017-Mar-22 14:19N 31°06' E 122°19'1013.2
2017-Mar-22 13:33N 31°12' E 122°09'1312.6
2017-Mar-22 12:34N 31°16' E 121°55'1212.0
2017-Mar-22 11:33N 31°20' E 121°42'2 2.3
2017-Mar-22 10:33N 31°20' E 121°39'0 0.0
2017-Mar-22 09:27N 31°20' E 121°39'0 0.0
2017-Mar-22 08:33N 31°20' E 121°39'0 0.0
2017-Mar-22 07:33N 31°20' E 121°39'0 0.0
2017-Mar-22 06:33N 31°20' E 121°39'0 0.0
2017-Mar-22 05:30N 31°20' E 121°39'0 0.1
2017-Mar-22 04:33N 31°20' E 121°39'0 0.0
2017-Mar-22 03:33N 31°20' E 121°39'0 0.1
2017-Mar-22 02:33N 31°20' E 121°39'0 0.0
2017-Mar-22 01:30N 31°20' E 121°39'0 0.0
2017-Mar-22 00:30N 31°20' E 121°39'0 0.0
2017-Mar-21 23:33N 31°20' E 121°39'0 0.0
2017-Mar-21 22:33N 31°20' E 121°39'0 0.0
2017-Mar-21 21:33N 31°20' E 121°39'0 0.1
2017-Mar-21 20:33N 31°20' E 121°39'0 0.1
2017-Mar-21 19:33N 31°20' E 121°39'0 0.0
2017-Mar-21 18:33N 31°20' E 121°39'0 0.0
2017-Mar-21 17:33N 31°20' E 121°39'0 0.0
2017-Mar-21 16:33N 31°20' E 121°39'0 0.0
2017-Mar-21 15:33N 31°20' E 121°39'0 0.0
2017-Mar-21 14:33N 31°20' E 121°39'0 0.0
2017-Mar-21 13:33N 31°20' E 121°39'0 0.0
2017-Mar-21 12:33N 31°20' E 121°39'0 0.0
2017-Mar-21 11:25N 31°20' E 121°39'4 4.7
2017-Mar-21 10:33N 31°19' E 121°44'9 9.4
2017-Mar-21 09:33N 31°16' E 121°54'1010.0
2017-Mar-21 08:33N 31°14' E 122°06'8 8.4
2017-Mar-21 07:33N 31°09' E 122°14'8 8.2
2017-Mar-21 06:33N 31°06' E 122°23'9 7.7
2017-Mar-21 05:22N 31°07' E 122°33'  
2017-Mar-14 11:33N 35°02' E 139°35'1616.0
2017-Mar-14 10:33N 35°15' E 139°46'1312.6
2017-Mar-14 09:33N 35°27' E 139°43'1 1.0
2017-Mar-14 08:33N 35°28' E 139°42'0 0.0
2017-Mar-14 07:33N 35°28' E 139°42'0 0.0
2017-Mar-14 06:33N 35°28' E 139°42'0 0.0
2017-Mar-14 05:33N 35°28' E 139°42'0 0.0
2017-Mar-14 04:33N 35°28' E 139°42'0 0.0
2017-Mar-14 03:33N 35°28' E 139°42'0 0.0
2017-Mar-14 02:33N 35°28' E 139°42'0 0.0
2017-Mar-14 01:33N 35°28' E 139°42'0 0.0
2017-Mar-14 00:33N 35°28' E 139°42'0 0.0
2017-Mar-13 23:33N 35°28' E 139°42'0 0.2
2017-Mar-13 22:33N 35°28' E 139°42'5 4.7
2017-Mar-13 21:33N 35°27' E 139°48'9 9.0
2017-Mar-13 20:33N 35°36' E 139°46'0 0.4
2017-Mar-13 19:31N 35°37' E 139°46'0 0.0
2017-Mar-13 18:31N 35°37' E 139°46'0 0.0
2017-Mar-13 17:28N 35°37' E 139°46'0 0.0
2017-Mar-13 16:31N 35°37' E 139°46'0 0.0
2017-Mar-13 15:31N 35°37' E 139°46'0 0.0
2017-Mar-13 14:31N 35°37' E 139°46'0 0.0
2017-Mar-13 13:31N 35°37' E 139°46'0 0.0
2017-Mar-13 12:28N 35°37' E 139°46'0 0.0
2017-Mar-13 11:31N 35°37' E 139°46'0 0.0
2017-Mar-13 10:31N 35°37' E 139°46'0 0.0
2017-Mar-13 09:28N 35°37' E 139°46'0 0.0
2017-Mar-13 08:31N 35°37' E 139°46'0 0.0
2017-Mar-13 07:31N 35°37' E 139°46'0 0.0
2017-Mar-13 06:31N 35°37' E 139°46'0 0.0
2017-Mar-13 05:31N 35°37' E 139°46'0 0.0
2017-Mar-13 04:31N 35°37' E 139°46'0 0.0
2017-Mar-13 03:31N 35°37' E 139°46'0 0.0
2017-Mar-13 02:28N 35°37' E 139°46'7 7.8
2017-Mar-13 01:34N 35°31' E 139°52'1313.0
2017-Mar-13 00:33N 35°20' E 139°44'1110.9
2017-Mar-12 23:33N 35°09' E 139°47'8 7.6
2017-Mar-12 22:33N 35°02' E 139°44'7 7.3
2017-Mar-12 21:33N 34°55' E 139°43'8 7.8
2017-Mar-12 20:33N 34°48' E 139°47'11 8.2
2017-Mar-12 19:13N 34°48' E 140°00'  

Dump ship's entire track history